| time (UTC) | temp C | wind direction | speed KPH | gust KPH | rain 1hr cm | rain 24hr cm | rain mn cm | humidity % | barometer mb |
| 20260507180805 | 17 | 113 | 3.2 | 17.7 | 0.00 | 0.64 | 0.64 | 31 | 1008.5 |
| 20260507180023 | 17 | 113 | 1.6 | 17.7 | 0.00 | 0.64 | 0.64 | 31 | 1008.3 |
| 20260507175514 | 17 | 113 | 3.2 | 17.7 | 0.00 | 0.64 | 0.64 | 33 | 1008.5 |
| 20260507175003 | 17 | 135 | 3.2 | 11.3 | 0.00 | 0.64 | 0.64 | 33 | 1008.5 |
| 20260507174454 | 17 | 90 | 3.2 | 9.7 | 0.00 | 0.64 | 0.64 | 33 | 1008.3 |
| 20260507174219 | 17 | 113 | 3.2 | 12.9 | 0.00 | 0.64 | 0.64 | 32 | 1008.3 |
| 20260507173440 | 17 | 90 | 3.2 | 12.9 | 0.00 | 0.64 | 0.64 | 33 | 1008.3 |
| 20260507172918 | 17 | 135 | 3.2 | 14.5 | 0.00 | 0.64 | 0.64 | 31 | 1008.5 |
| 20260507172419 | 17 | 158 | 1.6 | 14.5 | 0.00 | 0.64 | 0.64 | 29 | 1008.5 |
| 20260507172133 | 17 | 90 | 3.2 | 11.3 | 0.00 | 0.64 | 0.64 | 29 | 1008.6 |
| 20260507171338 | 16 | 113 | 3.2 | 14.5 | 0.00 | 0.64 | 0.64 | 30 | 1008.6 |
| 20260507170812 | 16 | 113 | 3.2 | 14.5 | 0.00 | 0.64 | 0.64 | 32 | 1008.7 |
| 20260507170250 | 15 | 68 | 1.6 | 14.5 | 0.00 | 0.64 | 0.64 | 33 | 1008.5 |
| 20260507165748 | 16 | 180 | 4.8 | 20.9 | 0.00 | 0.64 | 0.64 | 32 | 1008.8 |
| 20260507165240 | 16 | 158 | 4.8 | 20.9 | 0.00 | 0.64 | 0.64 | 33 | 1008.6 |
| 20260507164736 | 15 | 135 | 3.2 | 17.7 | 0.00 | 0.64 | 0.64 | 34 | 1008.7 |
| 20260507164234 | 16 | 135 | 3.2 | 17.7 | 0.00 | 0.64 | 0.64 | 32 | 1009.1 |
| 20260507163732 | 16 | 90 | 4.8 | 17.7 | 0.00 | 0.64 | 0.64 | 30 | 1009.0 |
| 20260507163218 | 17 | 113 | 6.4 | 17.7 | 0.00 | 0.64 | 0.64 | 28 | 1008.6 |
| 20260507162714 | 16 | 90 | 6.4 | 17.7 | 0.00 | 0.64 | 0.64 | 28 | 1008.7 |
| 20260507162214 | 17 | 135 | 1.6 | 17.7 | 0.00 | 0.64 | 0.64 | 34 | 1009.0 |
| 20260507161706 | 16 | 113 | 8.0 | 20.9 | 0.00 | 0.64 | 0.64 | 32 | 1008.8 |
| 20260507161656 | 16 | 90 | 3.2 | 20.9 | 0.00 | 0.64 | 0.64 | 32 | 1008.8 |
| 20260507160855 | 16 | 135 | 4.8 | 14.5 | 0.00 | 0.64 | 0.64 | 34 | 1009.0 |
| 20260507160110 | 16 | 113 | 6.4 | 14.5 | 0.00 | 0.64 | 0.64 | 35 | 1008.8 |
| 20260507155555 | 16 | 158 | 6.4 | 17.7 | 0.00 | 0.64 | 0.64 | 33 | 1008.8 |
| 20260507155051 | 15 | 90 | 9.7 | 17.7 | 0.00 | 0.64 | 0.64 | 34 | 1009.1 |
| 20260507154531 | 16 | 158 | 6.4 | 17.7 | 0.00 | 0.64 | 0.64 | 34 | 1009.0 |
| 20260507154020 | 15 | 113 | 6.4 | 17.7 | 0.00 | 0.64 | 0.64 | 34 | 1009.2 |
| 20260507153509 | 15 | 135 | 6.4 | 17.7 | 0.00 | 0.64 | 0.64 | 35 | 1009.2 |
| 20260507153008 | 14 | 135 | 3.2 | 17.7 | 0.00 | 0.64 | 0.64 | 35 | 1009.3 |
| 20260507152738 | 13 | 135 | 3.2 | 14.5 | 0.00 | 0.64 | 0.64 | 38 | 1009.2 |
| 20260507151953 | 13 | 158 | 3.2 | 17.7 | 0.00 | 0.64 | 0.64 | 36 | 1009.3 |
| 20260507151445 | 13 | 135 | 6.4 | 17.7 | 0.00 | 0.64 | 0.64 | 36 | 1009.0 |
| 20260507150916 | 13 | 113 | 6.4 | 14.5 | 0.00 | 0.64 | 0.64 | 38 | 1009.1 |
| 20260507150413 | 13 | 135 | 6.4 | 12.9 | 0.00 | 0.64 | 0.64 | 36 | 1009.0 |
| 20260507145854 | 13 | 135 | 4.8 | 11.3 | 0.00 | 0.64 | 0.64 | 38 | 1008.6 |
| 20260507145400 | 13 | 113 | 1.6 | 6.4 | 0.00 | 0.64 | 0.64 | 37 | 1008.8 |
| 20260507145349 | 13 | 113 | 4.8 | 6.4 | 0.00 | 0.64 | 0.64 | 37 | 1008.6 |
| 20260507144338 | 13 | 135 | 0.0 | 6.4 | 0.00 | 0.64 | 0.64 | 36 | 1009.3 |
| 20260507143821 | 13 | 68 | 1.6 | 12.9 | 0.00 | 0.64 | 0.64 | 34 | 1008.6 |
| 20260507143548 | 13 | 90 | 3.2 | 12.9 | 0.00 | 0.64 | 0.64 | 34 | 1009.0 |
| 20260507142815 | 13 | 135 | 3.2 | 12.9 | 0.00 | 0.64 | 0.64 | 34 | 1009.2 |
| 20260507142307 | 13 | 68 | 0.0 | 9.7 | 0.00 | 0.64 | 0.64 | 35 | 1009.1 |
| 20260507141802 | 12 | 90 | 3.2 | 6.4 | 0.00 | 0.64 | 0.64 | 37 | 1009.0 |
| 20260507141256 | 12 | 113 | 0.0 | 3.2 | 0.00 | 0.64 | 0.64 | 37 | 1009.2 |
| 20260507140738 | 12 | 45 | 1.6 | 17.7 | 0.00 | 0.64 | 0.64 | 34 | 1009.3 |
| 20260507140445 | 13 | 90 | 1.6 | 17.7 | 0.00 | 0.64 | 0.64 | 32 | 1009.1 |
| 20260507135937 | 13 | 135 | 3.2 | 12.9 | 0.00 | 0.64 | 0.64 | 33 | 1009.1 |
| 20260507135145 | 13 | 113 | 3.2 | 11.3 | 0.00 | 0.64 | 0.64 | 34 | 1008.8 |
| 20260507134620 | 13 | 113 | 3.2 | 14.5 | 0.00 | 0.64 | 0.64 | 35 | 1008.4 |
| 20260507134114 | 13 | 113 | 3.2 | 14.5 | 0.00 | 0.64 | 0.64 | 34 | 1008.6 |
| 20260507133601 | 13 | 90 | 3.2 | 14.5 | 0.00 | 0.64 | 0.64 | 34 | 1008.1 |
| 20260507133054 | 13 | 68 | 3.2 | 11.3 | 0.00 | 0.64 | 0.64 | 34 | 1007.7 |
| 20260507132811 | 12 | 45 | 3.2 | 24.1 | 0.00 | 0.64 | 0.64 | 34 | 1008.2 |
| 20260507132037 | 12 | 68 | 3.2 | 24.1 | 0.00 | 0.64 | 0.64 | 35 | 1008.4 |
| 20260507131535 | 12 | 68 | 6.4 | 17.7 | 0.00 | 0.64 | 0.64 | 34 | 1008.4 |
| 20260507131033 | 12 | 45 | 4.8 | 17.7 | 0.00 | 0.64 | 0.64 | 35 | 1008.5 |
| 20260507130536 | 12 | 90 | 3.2 | 17.7 | 0.00 | 0.64 | 0.64 | 37 | 1009.0 |
| 20260507130013 | 12 | 90 | 3.2 | 25.7 | 0.00 | 0.64 | 0.64 | 40 | 1008.7 |
| 20260507125506 | 12 | 90 | 9.7 | 25.7 | 0.00 | 0.64 | 0.64 | 43 | 1008.6 |
| 20260507124954 | 11 | 90 | 6.4 | 24.1 | 0.00 | 0.64 | 0.64 | 43 | 1008.2 |
| 20260507124446 | 11 | 68 | 3.2 | 22.5 | 0.03 | 0.64 | 0.64 | 47 | 1008.3 |
| 20260507123944 | 11 | 338 | 3.2 | 14.5 | 0.03 | 0.64 | 0.64 | 48 | 1009.1 |
| 20260507123423 | 11 | 113 | 6.4 | 14.5 | 0.03 | 0.64 | 0.64 | 49 | 1009.0 |
| 20260507122911 | 11 | 135 | 4.8 | 17.7 | 0.03 | 0.64 | 0.64 | 58 | 1008.5 |
| 20260507122359 | 10 | 68 | 6.4 | 17.7 | 0.03 | 0.64 | 0.64 | 62 | 1008.5 |
| 20260507122128 | 10 | 113 | 6.4 | 17.7 | 0.13 | 0.64 | 0.64 | 70 | 1007.5 |
| 20260507121344 | 9 | 113 | 3.2 | 17.7 | 0.20 | 0.64 | 0.64 | 71 | 1007.2 |
| 20260507120836 | 8 | 113 | 3.2 | 12.9 | 0.30 | 0.64 | 0.64 | 79 | 1007.1 |
| 20260507120326 | 8 | 68 | 3.2 | 17.7 | 0.36 | 0.64 | 0.64 | 83 | 1007.5 |
| 20260507115809 | 8 | 45 | 3.2 | 27.4 | 0.46 | 0.64 | 0.64 | 87 | 1008.1 |
| 20260507115514 | 8 | 68 | 3.2 | 27.4 | 0.48 | 0.64 | 0.64 | 88 | 1008.3 |
| 20260507114737 | 8 | 135 | 1.6 | 12.9 | 0.51 | 0.61 | 0.61 | 89 | 1008.1 |
| 20260507114235 | 8 | 68 | 1.6 | 12.9 | 0.51 | 0.61 | 0.61 | 90 | 1007.3 |
| 20260507113734 | 8 | 113 | 3.2 | 9.7 | 0.53 | 0.61 | 0.61 | 90 | 1007.7 |
| 20260507113217 | 8 | 90 | 1.6 | 6.4 | 0.56 | 0.61 | 0.61 | 90 | 1006.9 |
| 20260507112707 | 8 | 23 | 0.0 | 6.4 | 0.61 | 0.61 | 0.61 | 90 | 1006.8 |
| 20260507112155 | 8 | 113 | 3.2 | 11.3 | 0.56 | 0.56 | 0.56 | 89 | 1007.1 |
| 20260507111915 | 8 | 113 | 3.2 | 12.9 | 0.48 | 0.48 | 0.48 | 88 | 1007.5 |
| 20260507111123 | 8 | 90 | 1.6 | 12.9 | 0.36 | 0.36 | 0.38 | 88 | 1007.7 |
| 20260507110900 | 9 | 45 | 3.2 | 17.7 | 0.20 | 0.20 | 0.20 | 86 | 1007.4 |
| 20260507110618 | 8 | 23 | 3.2 | 17.7 | 0.30 | 0.30 | 0.30 | 86 | 1008.1 |
| 20260507105606 | 9 | 90 | 3.2 | 6.4 | 0.18 | 0.18 | 0.18 | 85 | 1007.4 |
| 20260507105103 | 9 | 68 | 0.0 | 9.7 | 0.15 | 0.15 | 0.15 | 84 | 1007.7 |
| 20260507104824 | 9 | 113 | 1.6 | 14.5 | 0.10 | 0.10 | 0.10 | 81 | 1008.5 |
| 20260507104051 | 9 | 113 | 1.6 | 17.7 | 0.05 | 0.05 | 0.05 | 80 | 1007.9 |
| 20260507103549 | 10 | 90 | 3.2 | 24.1 | 0.03 | 0.03 | 0.03 | 77 | 1007.1 |
| 20260507103302 | 10 | 135 | 3.2 | 38.6 | 0.03 | 0.03 | 0.03 | 74 | 1005.7 |
| 20260507102523 | 11 | 135 | 9.7 | 37.0 | 0.00 | 0.00 | 0.00 | 64 | 1004.4 |
| 20260507102512 | 11 | 68 | 4.8 | 38.6 | 0.00 | 0.00 | 0.00 | 70 | 1005.0 |
| 20260507101726 | 12 | 113 | 4.8 | 24.1 | 0.00 | 0.00 | 0.00 | 61 | 1004.0 |
| 20260507100932 | 12 | 68 | 1.6 | 17.7 | 0.00 | 0.00 | 0.00 | 60 | 1004.4 |
| 20260507100413 | 11 | 90 | 4.8 | 35.4 | 0.00 | 0.00 | 0.00 | 63 | 1004.6 |
| 20260507095905 | 10 | 90 | 6.4 | 35.4 | 0.00 | 0.00 | 0.00 | 70 | 1003.8 |
| 20260507095404 | 11 | 158 | 6.4 | 37.0 | 0.00 | 0.00 | 0.00 | 67 | 1004.3 |
| 20260507094858 | 12 | 180 | 3.2 | 37.0 | 0.00 | 0.00 | 0.00 | 55 | 1004.4 |
| 20260507094357 | 12 | 158 | 8.0 | 24.1 | 0.00 | 0.00 | 0.00 | 52 | 1004.7 |
| 20260507093834 | 13 | 180 | 6.4 | 24.1 | 0.00 | 0.00 | 0.00 | 51 | 1004.1 |
| 20260507093336 | 13 | 113 | 6.4 | 27.4 | 0.00 | 0.00 | 0.00 | 50 | 1003.7 |
| 20260507092832 | 13 | 158 | 8.0 | 27.4 | 0.00 | 0.00 | 0.00 | 50 | 1003.2 |
| 20260507092310 | 13 | 90 | 4.8 | 27.4 | 0.00 | 0.00 | 0.00 | 49 | 1003.1 |
| 20260507091759 | 13 | 90 | 3.2 | 25.7 | 0.00 | 0.00 | 0.00 | 47 | 1003.3 |
| 20260507091300 | 13 | 203 | 6.4 | 25.7 | 0.00 | 0.00 | 0.00 | 46 | 1003.2 |
| 20260507090737 | 13 | 135 | 8.0 | 22.5 | 0.00 | 0.00 | 0.00 | 47 | 1003.1 |
| 20260507090235 | 13 | 45 | 6.4 | 20.9 | 0.00 | 0.00 | 0.00 | 49 | 1003.6 |
| 20260507090224 | 13 | 68 | 4.8 | 22.5 | 0.00 | 0.00 | 0.00 | 48 | 1003.6 |
| 20260507085446 | 14 | 45 | 6.4 | 20.9 | 0.00 | 0.00 | 0.00 | 48 | 1004.0 |
| 20260507084720 | 14 | 315 | 4.8 | 27.4 | 0.00 | 0.00 | 0.00 | 48 | 1003.7 |
| 20260507084711 | 14 | 90 | 6.4 | 20.9 | 0.00 | 0.00 | 0.00 | 47 | 1003.9 |
| 20260507083702 | 14 | 293 | 6.4 | 27.4 | 0.00 | 0.00 | 0.00 | 47 | 1003.6 |
| 20260507083152 | 14 | 135 | 6.4 | 20.9 | 0.00 | 0.00 | 0.00 | 47 | 1003.3 |
| 20260507083132 | 14 | 90 | 4.8 | 20.9 | 0.00 | 0.00 | 0.00 | 47 | 1003.7 |
| 20260507082127 | 14 | 23 | 3.2 | 22.5 | 0.00 | 0.00 | 0.00 | 48 | 1003.7 |
| 20260507081845 | 14 | 68 | 3.2 | 22.5 | 0.00 | 0.00 | 0.00 | 47 | 1003.9 |
| 20260507081050 | 14 | 158 | 3.2 | 17.7 | 0.00 | 0.00 | 0.00 | 47 | 1004.3 |
| 20260507080545 | 14 | 68 | 4.8 | 17.7 | 0.00 | 0.00 | 0.00 | 47 | 1004.4 |
| 20260507080310 | 15 | 0 | 8.0 | 27.4 | 0.00 | 0.00 | 0.00 | 47 | 1004.1 |
| 20260507075526 | 15 | 180 | 4.8 | 27.4 | 0.00 | 0.00 | 0.00 | 47 | 1004.2 |
| 20260507075024 | 15 | 0 | 3.2 | 14.5 | 0.00 | 0.00 | 0.00 | 47 | 1004.4 |
| 20260507074745 | 15 | 135 | 4.8 | 17.7 | 0.00 | 0.00 | 0.00 | 47 | 1004.8 |
| 20260507073948 | 15 | 90 | 6.4 | 25.7 | 0.00 | 0.00 | 0.00 | 47 | 1004.2 |
| 20260507073708 | 15 | 90 | 6.4 | 25.7 | 0.00 | 0.00 | 0.00 | 47 | 1004.4 |
| 20260507072920 | 15 | 0 | 4.8 | 33.8 | 0.00 | 0.00 | 0.00 | 49 | 1004.2 |
| 20260507072414 | 15 | 113 | 3.2 | 33.8 | 0.00 | 0.00 | 0.00 | 48 | 1004.2 |
| 20260507071859 | 15 | 68 | 3.2 | 17.7 | 0.00 | 0.00 | 0.00 | 48 | 1004.2 |
| 20260507071349 | 15 | 113 | 6.4 | 20.9 | 0.00 | 0.00 | 0.00 | 47 | 1004.1 |
| 20260507070847 | 15 | 113 | 3.2 | 20.9 | 0.00 | 0.00 | 0.00 | 47 | 1004.1 |
| 20260507070323 | 15 | 68 | 6.4 | 12.9 | 0.00 | 0.00 | 0.00 | 46 | 1004.3 |
| 20260507065805 | 15 | 90 | 1.6 | 14.5 | 0.00 | 0.00 | 0.00 | 47 | 1004.4 |
| 20260507065510 | 15 | 113 | 6.4 | 14.5 | 0.00 | 0.00 | 0.00 | 46 | 1004.2 |
| 20260507064731 | 15 | 113 | 3.2 | 12.9 | 0.00 | 0.00 | 0.00 | 48 | 1004.1 |
| 20260507064214 | 15 | 90 | 3.2 | 17.7 | 0.00 | 0.00 | 0.00 | 48 | 1004.0 |
| 20260507063703 | 16 | 135 | 1.6 | 17.7 | 0.00 | 0.00 | 0.00 | 48 | 1004.1 |
| 20260507063652 | 15 | 113 | 1.6 | 17.7 | 0.00 | 0.00 | 0.00 | 49 | 1003.9 |
| 20260507062852 | 16 | 68 | 4.8 | 17.7 | 0.00 | 0.00 | 0.00 | 49 | 1004.0 |
| 20260507062343 | 16 | 90 | 1.6 | 14.5 | 0.00 | 0.00 | 0.00 | 53 | 1003.8 |
| 20260507061604 | 16 | 113 | 3.2 | 14.5 | 0.00 | 0.00 | 0.00 | 54 | 1004.1 |
| 20260507061324 | 16 | 158 | 1.6 | 12.9 | 0.00 | 0.00 | 0.00 | 59 | 1004.0 |
| 20260507060552 | 16 | 90 | 3.2 | 12.9 | 0.00 | 0.00 | 0.00 | 61 | 1004.2 |
| 20260507060530 | 16 | 158 | 3.2 | 11.3 | 0.00 | 0.00 | 0.00 | 64 | 1004.3 |
| 20260507055519 | 16 | 113 | 3.2 | 17.7 | 0.00 | 0.00 | 0.00 | 66 | 1004.1 |
| 20260507055000 | 16 | 23 | 6.4 | 17.7 | 0.00 | 0.00 | 0.00 | 69 | 1004.1 |
| 20260507054449 | 16 | 0 | 1.6 | 22.5 | 0.00 | 0.00 | 0.00 | 70 | 1004.1 |
| 20260507053946 | 17 | 158 | 4.8 | 22.5 | 0.00 | 0.00 | 0.00 | 69 | 1004.3 |
| 20260507053425 | 17 | 45 | 1.6 | 14.5 | 0.00 | 0.00 | 0.00 | 77 | 1004.2 |
| 20260507053416 | 17 | 90 | 3.2 | 11.3 | 0.00 | 0.00 | 0.00 | 73 | 1004.2 |
| 20260507052406 | 17 | 158 | 3.2 | 14.5 | 0.00 | 0.00 | 0.00 | 78 | 1004.2 |
| 20260507051845 | 17 | 45 | 3.2 | 11.3 | 0.00 | 0.00 | 0.00 | 82 | 1004.2 |
| 20260507051328 | 16 | 90 | 0.0 | 6.4 | 0.00 | 0.00 | 0.00 | 86 | 1004.3 |
| 20260507050808 | 16 | 113 | 1.6 | 3.2 | 0.00 | 0.00 | 0.00 | 90 | 1004.2 |
| 20260507050257 | 17 | 90 | 0.0 | 6.4 | 0.00 | 0.00 | 0.00 | 91 | 1004.2 |
| 20260507045737 | 17 | 113 | 0.0 | 6.4 | 0.00 | 0.00 | 0.00 | 92 | 1004.3 |
| 20260507045222 | 16 | 90 | 3.2 | 6.4 | 0.00 | 0.00 | 0.00 | 92 | 1004.3 |
| 20260507044657 | 16 | 113 | 1.6 | 6.4 | 0.00 | 0.00 | 0.00 | 92 | 1004.2 |
| 20260507044136 | 16 | 135 | 1.6 | 6.4 | 0.00 | 0.00 | 0.00 | 92 | 1004.3 |
| 20260507043637 | 16 | 158 | 3.2 | 6.4 | 0.00 | 0.00 | 0.00 | 92 | 1004.7 |
| 20260507043124 | 16 | 135 | 3.2 | 3.2 | 0.00 | 0.00 | 0.00 | 92 | 1004.3 |
| 20260507042616 | 16 | 158 | 0.0 | 6.4 | 0.00 | 0.00 | 0.00 | 92 | 1004.3 |
| 20260507042115 | 16 | 135 | 1.6 | 6.4 | 0.00 | 0.00 | 0.00 | 92 | 1004.2 |
| 20260507041833 | 16 | 135 | 0.0 | 3.2 | 0.00 | 0.00 | 0.00 | 92 | 1004.4 |
| 20260507041102 | 16 | 135 | 1.6 | 3.2 | 0.00 | 0.00 | 0.00 | 92 | 1004.3 |
| 20260507040831 | 16 | 23 | 0.0 | 3.2 | 0.00 | 0.00 | 0.00 | 93 | 1004.4 |
| 20260507040058 | 16 | 0 | 0.0 | 0.0 | 0.00 | 0.00 | 0.00 | 93 | 1004.4 |
| 20260507035547 | 16 | 0 | 0.0 | 0.0 | 0.00 | 0.00 | 0.00 | 93 | 1004.1 |
| 20260507035039 | 16 | 0 | 0.0 | 0.0 | 0.00 | 0.00 | 0.00 | 93 | 1004.4 |
| 20260507034539 | 16 | 0 | 0.0 | 3.2 | 0.00 | 0.00 | 0.00 | 93 | 1004.6 |
| 20260507034241 | 16 | 0 | 0.0 | 3.2 | 0.00 | 0.00 | 0.00 | 93 | 1005.0 |
| 20260507033504 | 16 | 0 | 0.0 | 0.0 | 0.00 | 0.00 | 0.00 | 93 | 1004.4 |
| 20260507032947 | 16 | 0 | 0.0 | 0.0 | 0.00 | 0.00 | 0.00 | 93 | 1004.4 |
| 20260507032444 | 16 | 0 | 0.0 | 0.0 | 0.00 | 0.00 | 0.00 | 93 | 1004.6 |
| 20260507031937 | 16 | 338 | 0.0 | 0.0 | 0.00 | 0.00 | 0.00 | 93 | 1004.7 |
| 20260507031652 | 16 | 338 | 0.0 | 0.0 | 0.00 | 0.00 | 0.00 | 93 | 1004.9 |
| 20260507030904 | 16 | 338 | 0.0 | 0.0 | 0.00 | 0.00 | 0.00 | 92 | 1004.8 |
| 20260507030356 | 17 | 338 | 0.0 | 3.2 | 0.00 | 0.00 | 0.00 | 92 | 1004.8 |
| 20260507025859 | 17 | 338 | 0.0 | 3.2 | 0.00 | 0.00 | 0.00 | 92 | 1004.6 |
| 20260507025344 | 17 | 338 | 0.0 | 0.0 | 0.00 | 0.00 | 0.00 | 92 | 1004.9 |
| 20260507024730 | 17 | 338 | 0.0 | 0.0 | 0.00 | 0.00 | 0.00 | 92 | 1004.9 |
| 20260507024222 | 17 | 338 | 0.0 | 3.2 | 0.00 | 0.00 | 0.00 | 92 | 1005.0 |
| 20260507023713 | 17 | 338 | 0.0 | 3.2 | 0.00 | 0.00 | 0.00 | 92 | 1005.4 |
| 20260507023209 | 17 | 0 | 0.0 | 0.0 | 0.00 | 0.00 | 0.00 | 92 | 1005.4 |
| 20260507022654 | 17 | 0 | 0.0 | 0.0 | 0.00 | 0.00 | 0.00 | 91 | 1005.3 |
| 20260507022147 | 17 | 0 | 0.0 | 0.0 | 0.00 | 0.00 | 0.00 | 91 | 1005.2 |
| 20260507021637 | 18 | 0 | 0.0 | 0.0 | 0.00 | 0.00 | 0.00 | 91 | 1005.4 |
| 20260507021138 | 18 | 0 | 0.0 | 0.0 | 0.00 | 0.00 | 0.00 | 91 | 1005.7 |
| 20260507020635 | 18 | 0 | 0.0 | 0.0 | 0.00 | 0.00 | 0.00 | 91 | 1005.4 |
| 20260507020146 | 18 | 0 | 0.0 | 0.0 | 0.00 | 0.00 | 0.00 | 90 | 1005.4 |
| 20260507020136 | 18 | 0 | 0.0 | 0.0 | 0.00 | 0.00 | 0.00 | 90 | 1005.2 |
| 20260507015348 | 18 | 0 | 0.0 | 3.2 | 0.00 | 0.00 | 0.00 | 89 | 1005.3 |
| 20260507014845 | 18 | 0 | 0.0 | 3.2 | 0.00 | 0.00 | 0.00 | 89 | 1005.4 |
| 20260507014103 | 18 | 0 | 1.6 | 3.2 | 0.00 | 0.00 | 0.00 | 89 | 1005.7 |
| 20260507013548 | 18 | 0 | 0.0 | 6.4 | 0.00 | 0.00 | 0.00 | 89 | 1005.5 |
| 20260507013317 | 19 | 0 | 1.6 | 6.4 | 0.00 | 0.00 | 0.00 | 88 | 1005.9 |
| 20260507012814 | 19 | 0 | 3.2 | 6.4 | 0.00 | 0.00 | 0.00 | 88 | 1005.7 |
| 20260507012030 | 19 | 315 | 0.0 | 6.4 | 0.00 | 0.00 | 0.00 | 88 | 1006.0 |
| 20260507011507 | 19 | 338 | 3.2 | 6.4 | 0.00 | 0.00 | 0.00 | 87 | 1005.8 |
| 20260507011005 | 19 | 248 | 0.0 | 3.2 | 0.00 | 0.00 | 0.00 | 87 | 1006.1 |
| 20260507010522 | 19 | 248 | 0.0 | 0.0 | 0.00 | 0.00 | 0.00 | 87 | 1006.1 |
| 20260507010518 | 19 | 248 | 0.0 | 0.0 | 0.00 | 0.00 | 0.00 | 87 | 1006.3 |
| 20260507010504 | 19 | 248 | 0.0 | 0.0 | 0.00 | 0.00 | 0.00 | 87 | 1006.2 |
| 20260507005242 | 19 | 248 | 0.0 | 0.0 | 0.00 | 0.00 | 0.00 | 87 | 1006.0 |
| 20260507004728 | 19 | 248 | 0.0 | 0.0 | 0.00 | 0.00 | 0.00 | 87 | 1006.2 |
| 20260507004724 | 19 | 248 | 0.0 | 0.0 | 0.00 | 0.00 | 0.00 | 87 | 1006.2 |
| 20260507003429 | 19 | 248 | 0.0 | 0.0 | 0.00 | 0.00 | 0.00 | 87 | 1006.0 |
| 20260507002917 | 19 | 248 | 0.0 | 0.0 | 0.00 | 0.00 | 0.00 | 87 | 1006.0 |
| 20260507002415 | 19 | 248 | 0.0 | 0.0 | 0.00 | 0.00 | 0.00 | 86 | 1006.0 |
| 20260507001914 | 19 | 248 | 0.0 | 3.2 | 0.00 | 0.00 | 0.00 | 86 | 1005.7 |
| 20260507001410 | 19 | 248 | 0.0 | 3.2 | 0.00 | 0.00 | 0.00 | 86 | 1005.8 |
| 20260507000854 | 19 | 248 | 0.0 | 0.0 | 0.00 | 0.00 | 0.00 | 86 | 1005.7 |
| 20260507000358 | 18 | 248 | 0.0 | 0.0 | 0.00 | 0.00 | 0.00 | 86 | 1005.4 |
| 20260506235851 | 18 | 248 | 0.0 | 3.2 | 0.00 | 0.00 | 0.00 | 86 | 1005.3 |
| 20260506235841 | 18 | 248 | 0.0 | 0.0 | 0.00 | 0.00 | 0.00 | 86 | 1005.3 |
| 20260506234824 | 18 | 248 | 1.6 | 3.2 | 0.00 | 0.00 | 0.00 | 86 | 1005.0 |
| 20260506234322 | 18 | 248 | 0.0 | 0.0 | 0.00 | 0.00 | 0.00 | 87 | 1005.1 |
| 20260506233759 | 18 | 248 | 0.0 | 0.0 | 0.00 | 0.00 | 0.00 | 87 | 1004.9 |
| 20260506233523 | 18 | 248 | 0.0 | 0.0 | 0.00 | 0.00 | 0.00 | 87 | 1005.1 |
| 20260506232732 | 17 | 248 | 0.0 | 0.0 | 0.00 | 0.00 | 0.00 | 88 | 1004.8 |
| 20260506232212 | 17 | 248 | 0.0 | 0.0 | 0.00 | 0.00 | 0.00 | 88 | 1005.0 |
| 20260506231711 | 18 | 248 | 0.0 | 0.0 | 0.00 | 0.00 | 0.00 | 88 | 1004.9 |
| 20260506231150 | 17 | 248 | 0.0 | 0.0 | 0.00 | 0.00 | 0.00 | 88 | 1004.7 |
| 20260506230641 | 18 | 248 | 0.0 | 0.0 | 0.00 | 0.00 | 0.00 | 88 | 1004.7 |
| 20260506230131 | 18 | 248 | 0.0 | 0.0 | 0.00 | 0.00 | 0.00 | 87 | 1004.3 |
| 20260506225625 | 18 | 248 | 0.0 | 0.0 | 0.00 | 0.00 | 0.00 | 87 | 1004.3 |
| 20260506225101 | 18 | 248 | 0.0 | 0.0 | 0.00 | 0.00 | 0.00 | 86 | 1004.0 |
| 20260506224549 | 18 | 248 | 0.0 | 3.2 | 0.00 | 0.00 | 0.00 | 86 | 1003.9 |
| 20260506224032 | 18 | 248 | 3.2 | 3.2 | 0.00 | 0.00 | 0.00 | 86 | 1003.6 |
| 20260506223527 | 18 | 248 | 0.0 | 0.0 | 0.00 | 0.00 | 0.00 | 86 | 1003.6 |
| 20260506223014 | 18 | 248 | 0.0 | 0.0 | 0.00 | 0.00 | 0.00 | 85 | 1003.6 |
| 20260506222506 | 18 | 248 | 0.0 | 0.0 | 0.00 | 0.00 | 0.00 | 85 | 1003.5 |
| 20260506221939 | 19 | 248 | 0.0 | 0.0 | 0.00 | 0.00 | 0.00 | 84 | 1003.3 |
| 20260506221652 | 19 | 248 | 0.0 | 0.0 | 0.00 | 0.00 | 0.00 | 84 | 1003.1 |
| 20260506220915 | 19 | 248 | 0.0 | 3.2 | 0.00 | 0.00 | 0.00 | 83 | 1003.1 |
| 20260506220633 | 20 | 248 | 0.0 | 3.2 | 0.00 | 0.00 | 0.00 | 82 | 1003.0 |
| 20260506215859 | 20 | 248 | 0.0 | 3.2 | 0.00 | 0.00 | 0.00 | 81 | 1002.6 |
| 20260506215629 | 20 | 248 | 0.0 | 3.2 | 0.00 | 0.00 | 0.00 | 80 | 1002.7 |
| 20260506214844 | 20 | 270 | 0.0 | 0.0 | 0.00 | 0.00 | 0.00 | 79 | 1002.5 |
| 20260506214601 | 21 | 270 | 0.0 | 3.2 | 0.00 | 0.00 | 0.00 | 78 | 1002.2 |
| 20260506214058 | 21 | 270 | 0.0 | 6.4 | 0.00 | 0.00 | 0.00 | 78 | 1002.6 |
| 20260506213302 | 21 | 270 | 3.2 | 6.4 | 0.00 | 0.00 | 0.00 | 77 | 1002.7 |
| 20260506212745 | 21 | 293 | 0.0 | 6.4 | 0.00 | 0.00 | 0.00 | 76 | 1002.6 |
| 20260506212222 | 21 | 270 | 3.2 | 11.3 | 0.00 | 0.00 | 0.00 | 76 | 1002.6 |
| 20260506211948 | 22 | 293 | 3.2 | 11.3 | 0.00 | 0.00 | 0.00 | 75 | 1002.5 |
| 20260506211219 | 22 | 315 | 3.2 | 6.4 | 0.00 | 0.00 | 0.00 | 74 | 1002.6 |
| 20260506210944 | 22 | 315 | 4.8 | 9.7 | 0.00 | 0.00 | 0.00 | 73 | 1002.6 |
| 20260506210430 | 22 | 293 | 4.8 | 9.7 | 0.00 | 0.00 | 0.00 | 71 | 1002.7 |
| 20260506205920 | 23 | 293 | 4.8 | 6.4 | 0.00 | 0.00 | 0.00 | 70 | 1002.9 |
| 20260506205118 | 23 | 270 | 3.2 | 9.7 | 0.00 | 0.00 | 0.00 | 68 | 1003.0 |
| 20260506204604 | 23 | 270 | 3.2 | 11.3 | 0.00 | 0.00 | 0.00 | 69 | 1003.1 |
| 20260506204102 | 23 | 315 | 3.2 | 11.3 | 0.00 | 0.00 | 0.00 | 69 | 1003.2 |
| 20260506203600 | 23 | 270 | 4.8 | 9.7 | 0.00 | 0.00 | 0.00 | 68 | 1003.2 |
| 20260506203048 | 23 | 270 | 3.2 | 9.7 | 0.00 | 0.00 | 0.00 | 67 | 1003.1 |
| 20260506202538 | 23 | 293 | 3.2 | 11.3 | 0.00 | 0.00 | 0.00 | 67 | 1003.3 |
| 20260506202010 | 23 | 270 | 4.8 | 14.5 | 0.00 | 0.00 | 0.00 | 66 | 1003.7 |
| 20260506201453 | 23 | 293 | 8.0 | 14.5 | 0.00 | 0.00 | 0.00 | 68 | 1003.3 |
| 20260506200941 | 23 | 270 | 4.8 | 12.9 | 0.00 | 0.00 | 0.00 | 67 | 1003.3 |
| 20260506200702 | 23 | 293 | 6.4 | 14.5 | 0.00 | 0.00 | 0.00 | 66 | 1003.3 |
| 20260506195915 | 23 | 270 | 8.0 | 14.5 | 0.00 | 0.00 | 0.00 | 66 | 1003.3 |
| 20260506195402 | 24 | 315 | 6.4 | 11.3 | 0.00 | 0.00 | 0.00 | 65 | 1003.3 |
| 20260506194849 | 23 | 293 | 4.8 | 11.3 | 0.00 | 0.00 | 0.00 | 66 | 1003.7 |
| 20260506194345 | 24 | 338 | 6.4 | 17.7 | 0.00 | 0.00 | 0.00 | 66 | 1003.9 |
| 20260506193824 | 23 | 293 | 6.4 | 17.7 | 0.00 | 0.00 | 0.00 | 65 | 1004.0 |
| 20260506193305 | 24 | 315 | 3.2 | 14.5 | 0.00 | 0.00 | 0.00 | 65 | 1004.3 |
| 20260506192748 | 23 | 315 | 4.8 | 12.9 | 0.00 | 0.00 | 0.00 | 65 | 1004.1 |
| 20260506192244 | 24 | 293 | 3.2 | 12.9 | 0.00 | 0.00 | 0.00 | 65 | 1004.3 |
| 20260506191742 | 23 | 270 | 6.4 | 14.5 | 0.00 | 0.00 | 0.00 | 66 | 1004.3 |
| 20260506191222 | 23 | 23 | 3.2 | 14.5 | 0.00 | 0.00 | 0.00 | 66 | 1004.2 |
| 20260506190716 | 24 | 248 | 3.2 | 14.5 | 0.00 | 0.00 | 0.00 | 66 | 1004.4 |
| 20260506190213 | 23 | 270 | 8.0 | 17.7 | 0.00 | 0.00 | 0.00 | 65 | 1004.2 |
| 20260506185926 | 23 | 293 | 8.0 | 17.7 | 0.00 | 0.00 | 0.00 | 67 | 1004.6 |
| 20260506185155 | 23 | 293 | 3.2 | 17.7 | 0.00 | 0.00 | 0.00 | 69 | 1004.3 |
| 20260506184636 | 23 | 270 | 6.4 | 17.7 | 0.00 | 0.00 | 0.00 | 70 | 1004.6 |
| 20260506184129 | 23 | 270 | 12.9 | 17.7 | 0.00 | 0.00 | 0.00 | 67 | 1004.4 |
| 20260506183611 | 24 | 293 | 9.7 | 17.7 | 0.00 | 0.00 | 0.00 | 65 | 1004.3 |
| 20260506183100 | 23 | 270 | 3.2 | 17.7 | 0.00 | 0.00 | 0.00 | 68 | 1004.6 |
| 20260506182553 | 24 | 293 | 6.4 | 14.5 | 0.00 | 0.00 | 0.00 | 67 | 1004.7 |
| 20260506182100 | 23 | 225 | 3.2 | 12.9 | 0.00 | 0.00 | 0.00 | 70 | 1004.6 |
| 20260506181541 | 22 | 293 | 6.4 | 14.5 | 0.00 | 0.00 | 0.00 | 71 | 1004.8 |
| 20260506181030 | 23 | 270 | 6.4 | 17.7 | 0.00 | 0.00 | 0.00 | 67 | 1004.7 |